Time;durP1;ratioP1;P1;durP2;ratioP2;P2;SDS_P1;SDS_P2;PMS_P1;PMS_P2;Temp;Humidity;BMP_temperature;BMP_pressure;BME280_temperature;BME280_humidity;BME280_pressure;Samples;Min_cycle;Max_cycle;Signal;HPM_P1;HPM_P2
2024/01/18 00:00:16;;;;;;;42.80;17.63;;;;;;;;;;5019397;28;20057;-71
2024/01/18 00:02:42;;;;;;;38.08;16.70;;;;;;;;;;5012043;28;20030;-70
2024/01/18 00:05:07;;;;;;;42.30;16.80;;;;;;;;;;5004704;28;20046;-72
2024/01/18 00:07:33;;;;;;;40.13;15.95;;;;;;;;;;4992362;28;20534;-70
2024/01/18 00:09:58;;;;;;;46.13;18.00;;;;;;;;;;5003052;28;20049;-70
2024/01/18 00:12:24;;;;;;;39.28;16.20;;;;;;;;;;4999038;28;20050;-70
2024/01/18 00:14:49;;;;;;;37.25;16.23;;;;;;;;;;4984868;28;20129;-71
2024/01/18 00:17:14;;;;;;;52.40;17.63;;;;;;;;;;4990958;28;20034;-71
2024/01/18 00:19:40;;;;;;;42.88;17.98;;;;;;;;;;5004537;28;20491;-71
2024/01/18 00:22:05;;;;;;;46.25;17.27;;;;;;;;;;5005208;28;20084;-71
2024/01/18 00:24:31;;;;;;;40.10;16.90;;;;;;;;;;4994886;28;20921;-71
2024/01/18 00:26:56;;;;;;;45.75;18.10;;;;;;;;;;4986119;28;20093;-71
2024/01/18 00:29:21;;;;;;;42.03;17.95;;;;;;;;;;4986419;28;20034;-71
2024/01/18 00:31:47;;;;;;;43.70;17.95;;;;;;;;;;4988686;28;20057;-71
2024/01/18 00:34:12;;;;;;;39.25;18.05;;;;;;;;;;5005145;28;20046;-71
2024/01/18 00:36:37;;;;;;;48.60;18.55;;;;;;;;;;4995002;28;20041;-70
2024/01/18 00:39:09;;;;;;;40.00;17.05;;;;;;;;;;4992753;28;20503;-71
2024/01/18 00:41:37;;;;;;;37.13;17.52;;;;;;;;;;5000947;28;20030;-71
2024/01/18 00:44:03;;;;;;;42.72;17.30;;;;;;;;;;5001019;28;20041;-71
2024/01/18 00:46:28;;;;;;;39.22;18.33;;;;;;;;;;5000439;28;20038;-70
2024/01/18 00:48:53;;;;;;;43.25;17.27;;;;;;;;;;5000804;28;20433;-71
2024/01/18 00:51:19;;;;;;;48.60;18.67;;;;;;;;;;5001635;28;20037;-71
2024/01/18 00:53:44;;;;;;;40.72;16.95;;;;;;;;;;5021861;28;20037;-70
2024/01/18 00:56:11;;;;;;;42.28;18.08;;;;;;;;;;5020911;28;20131;-70
2024/01/18 00:58:37;;;;;;;42.35;18.15;;;;;;;;;;5004757;28;20033;-71
2024/01/18 01:01:02;;;;;;;43.90;19.45;;;;;;;;;;5004824;28;20462;-70
2024/01/18 01:03:28;;;;;;;40.92;17.98;;;;;;;;;;5005048;28;20038;-70
2024/01/18 01:05:53;;;;;;;50.60;19.50;;;;;;;;;;5005188;28;20028;-70
2024/01/18 01:08:19;;;;;;;20.25;10.63;;;;;;;;;;5002215;28;20455;-70
2024/01/18 01:10:44;;;;;;;30.15;12.45;;;;;;;;;;5001530;28;20428;-70
2024/01/18 01:13:10;;;;;;;30.90;12.75;;;;;;;;;;5008316;28;20067;-70
2024/01/18 01:15:35;;;;;;;28.73;12.90;;;;;;;;;;5004577;28;20458;-70
2024/01/18 01:18:02;;;;;;;26.63;12.00;;;;;;;;;;5004345;28;20476;-71
2024/01/18 01:20:28;;;;;;;24.10;10.93;;;;;;;;;;5005427;28;20057;-71
2024/01/18 01:22:53;;;;;;;30.38;13.85;;;;;;;;;;5004917;28;20062;-71
2024/01/18 01:25:19;;;;;;;31.00;12.23;;;;;;;;;;5002529;28;20030;-70
2024/01/18 01:27:44;;;;;;;30.20;12.70;;;;;;;;;;5002886;28;20030;-70
2024/01/18 01:30:10;;;;;;;24.80;12.55;;;;;;;;;;5002359;28;20049;-70
2024/01/18 01:32:36;;;;;;;31.88;15.23;;;;;;;;;;4993985;28;20053;-70
2024/01/18 01:35:01;;;;;;;31.70;12.80;;;;;;;;;;4982273;28;20039;-70
2024/01/18 01:37:26;;;;;;;27.80;11.55;;;;;;;;;;4996362;28;20038;-70
2024/01/18 01:39:52;;;;;;;26.05;11.70;;;;;;;;;;5000959;28;20073;-71
2024/01/18 01:42:17;;;;;;;18.40;9.00;;;;;;;;;;4991363;28;20931;-71
2024/01/18 01:44:42;;;;;;;23.20;8.85;;;;;;;;;;4996874;28;20026;-71
2024/01/18 01:47:08;;;;;;;24.38;10.23;;;;;;;;;;4977902;28;20045;-70
2024/01/18 01:49:33;;;;;;;23.63;9.63;;;;;;;;;;4988143;28;20030;-71
2024/01/18 01:52:00;;;;;;;19.02;8.75;;;;;;;;;;4987775;28;20038;-71
2024/01/18 01:54:29;;;;;;;26.30;11.13;;;;;;;;;;4987747;28;20037;-70
2024/01/18 01:56:56;;;;;;;30.75;12.68;;;;;;;;;;4987436;28;20034;-70
2024/01/18 01:59:22;;;;;;;29.08;10.68;;;;;;;;;;4986704;28;20030;-70
2024/01/18 02:01:48;;;;;;;34.83;13.65;;;;;;;;;;4987430;28;20041;-70
2024/01/18 02:04:14;;;;;;;24.90;11.73;;;;;;;;;;4987552;28;20038;-71
2024/01/18 02:06:40;;;;;;;25.85;10.13;;;;;;;;;;4987718;28;20081;-70
2024/01/18 02:09:06;;;;;;;25.77;10.40;;;;;;;;;;4987697;28;20030;-70
2024/01/18 02:11:32;;;;;;;24.65;11.60;;;;;;;;;;4987185;28;20022;-71
2024/01/18 02:13:57;;;;;;;23.15;11.07;;;;;;;;;;4987475;28;20483;-70
2024/01/18 02:16:23;;;;;;;25.52;11.63;;;;;;;;;;4987295;28;20053;-70
2024/01/18 02:18:49;;;;;;;26.52;11.55;;;;;;;;;;4987975;28;20042;-70
2024/01/18 02:21:15;;;;;;;26.13;12.32;;;;;;;;;;4987335;28;20031;-71
2024/01/18 02:23:47;;;;;;;23.13;10.52;;;;;;;;;;4988357;28;20057;-70
2024/01/18 02:26:13;;;;;;;25.37;11.70;;;;;;;;;;4985968;28;20508;-70
2024/01/18 02:28:52;;;;;;;26.70;11.18;;;;;;;;;;4986490;28;20273;-71
2024/01/18 02:31:17;;;;;;;21.80;10.45;;;;;;;;;;4987741;28;20839;-70
2024/01/18 02:33:42;;;;;;;29.00;11.88;;;;;;;;;;4995220;28;20065;-70
2024/01/18 02:36:08;;;;;;;23.58;10.98;;;;;;;;;;5008763;28;20586;-70
2024/01/18 02:38:33;;;;;;;30.40;11.82;;;;;;;;;;4993251;28;20674;-70
2024/01/18 02:40:59;;;;;;;24.35;11.18;;;;;;;;;;4987436;28;20420;-70
2024/01/18 02:43:24;;;;;;;26.33;12.05;;;;;;;;;;4992148;28;20046;-70
2024/01/18 02:45:50;;;;;;;23.17;10.35;;;;;;;;;;4999880;28;20388;-71
2024/01/18 02:48:15;;;;;;;26.05;12.02;;;;;;;;;;4990291;28;20034;-71
2024/01/18 02:50:41;;;;;;;25.77;11.45;;;;;;;;;;5007583;28;20510;-71
2024/01/18 02:53:07;;;;;;;28.67;11.63;;;;;;;;;;5001750;28;20519;-71
2024/01/18 02:55:32;;;;;;;28.33;11.85;;;;;;;;;;4986505;28;20045;-70
2024/01/18 02:57:57;;;;;;;23.85;11.70;;;;;;;;;;4986948;28;20038;-71
2024/01/18 03:00:23;;;;;;;30.73;12.10;;;;;;;;;;4986275;28;20045;-71
2024/01/18 03:02:48;;;;;;;25.20;10.95;;;;;;;;;;4985564;28;20034;-71
2024/01/18 03:05:14;;;;;;;22.63;10.82;;;;;;;;;;4986481;28;20045;-71
2024/01/18 03:07:39;;;;;;;28.75;11.90;;;;;;;;;;4986666;28;20039;-71
2024/01/18 03:10:05;;;;;;;22.80;10.77;;;;;;;;;;4986568;28;20585;-71
2024/01/18 03:12:34;;;;;;;25.00;11.25;;;;;;;;;;4986567;28;20189;-70
2024/01/18 03:15:00;;;;;;;32.55;12.70;;;;;;;;;;4984818;28;20100;-71
2024/01/18 03:17:25;;;;;;;31.38;11.80;;;;;;;;;;4985212;28;20676;-71
2024/01/18 03:19:50;;;;;;;28.10;12.32;;;;;;;;;;4985937;28;20533;-71
2024/01/18 03:22:16;;;;;;;25.08;11.40;;;;;;;;;;4986316;28;20057;-71
2024/01/18 03:24:41;;;;;;;22.88;11.10;;;;;;;;;;4986116;28;20081;-70
2024/01/18 03:27:06;;;;;;;31.85;11.32;;;;;;;;;;4986193;28;20454;-71
2024/01/18 03:29:32;;;;;;;21.55;10.00;;;;;;;;;;4985374;28;20462;-71
2024/01/18 03:31:57;;;;;;;28.10;12.80;;;;;;;;;;4984445;28;20654;-70
2024/01/18 03:34:22;;;;;;;23.77;11.45;;;;;;;;;;4984711;28;20049;-71
2024/01/18 03:36:48;;;;;;;24.83;11.35;;;;;;;;;;4991283;28;20037;-71
2024/01/18 03:39:13;;;;;;;25.35;11.73;;;;;;;;;;5004103;28;20057;-71
2024/01/18 03:41:39;;;;;;;29.35;13.05;;;;;;;;;;5004883;28;20026;-71
2024/01/18 03:44:04;;;;;;;25.90;11.13;;;;;;;;;;5005492;28;20943;-71
2024/01/18 03:46:29;;;;;;;28.13;12.50;;;;;;;;;;4999698;28;20034;-71
2024/01/18 03:48:55;;;;;;;27.58;11.55;;;;;;;;;;4978079;28;20457;-71
2024/01/18 03:51:20;;;;;;;20.70;10.60;;;;;;;;;;4966403;28;20516;-71
2024/01/18 03:53:45;;;;;;;22.52;11.07;;;;;;;;;;4985248;28;20544;-73
2024/01/18 03:56:12;;;;;;;31.25;13.10;;;;;;;;;;5004331;28;20523;-71
2024/01/18 03:58:37;;;;;;;22.35;10.75;;;;;;;;;;5017987;28;20045;-71
2024/01/18 04:01:03;;;;;;;23.05;11.20;;;;;;;;;;5024773;28;20037;-70
2024/01/18 04:03:28;;;;;;;27.05;12.02;;;;;;;;;;5023385;28;20060;-71
2024/01/18 04:05:53;;;;;;;24.73;12.15;;;;;;;;;;5022925;28;20106;-71
2024/01/18 04:08:19;;;;;;;26.02;12.32;;;;;;;;;;5023656;28;20044;-71
2024/01/18 04:10:44;;;;;;;26.88;11.82;;;;;;;;;;5024569;28;20102;-71
2024/01/18 04:13:09;;;;;;;28.73;12.65;;;;;;;;;;5024758;28;20033;-71
2024/01/18 04:15:35;;;;;;;35.17;12.13;;;;;;;;;;5023885;28;20050;-71
2024/01/18 04:18:01;;;;;;;30.50;12.80;;;;;;;;;;5034462;28;20492;-71
2024/01/18 04:20:27;;;;;;;28.65;12.05;;;;;;;;;;5042899;28;20123;-71
2024/01/18 04:22:53;;;;;;;29.60;13.35;;;;;;;;;;5041190;28;20056;-70
2024/01/18 04:25:18;;;;;;;30.92;12.63;;;;;;;;;;5041354;28;20029;-70
2024/01/18 04:27:44;;;;;;;32.75;13.23;;;;;;;;;;5041471;28;20072;-71
2024/01/18 04:30:10;;;;;;;29.30;12.75;;;;;;;;;;5001614;28;20085;-71
2024/01/18 04:32:36;;;;;;;28.73;12.90;;;;;;;;;;4990608;28;20019;-70
2024/01/18 04:35:01;;;;;;;28.60;12.73;;;;;;;;;;4999981;28;20046;-71
2024/01/18 04:37:26;;;;;;;26.30;10.80;;;;;;;;;;4991443;28;20044;-70
2024/01/18 04:39:52;;;;;;;24.80;12.50;;;;;;;;;;5002778;28;20042;-71
2024/01/18 04:42:17;;;;;;;29.27;12.07;;;;;;;;;;5004515;28;20034;-71
2024/01/18 04:44:42;;;;;;;28.67;12.95;;;;;;;;;;5004974;28;20037;-71
2024/01/18 04:47:08;;;;;;;29.70;13.13;;;;;;;;;;4994699;28;20084;-71
2024/01/18 04:49:33;;;;;;;30.50;12.48;;;;;;;;;;5002457;28;20511;-71
2024/01/18 04:52:00;;;;;;;30.45;12.70;;;;;;;;;;4996320;28;20038;-70
2024/01/18 04:54:25;;;;;;;25.92;11.65;;;;;;;;;;4989388;28;20038;-70
2024/01/18 04:56:50;;;;;;;28.55;11.88;;;;;;;;;;4991717;28;20022;-71
2024/01/18 04:59:17;;;;;;;26.90;12.20;;;;;;;;;;5002734;28;20030;-70
2024/01/18 05:01:43;;;;;;;25.73;11.45;;;;;;;;;;5004264;28;20577;-71
2024/01/18 05:04:09;;;;;;;27.65;12.68;;;;;;;;;;4998451;28;20034;-71
2024/01/18 05:06:34;;;;;;;28.73;13.65;;;;;;;;;;5004296;28;20456;-71
2024/01/18 05:09:00;;;;;;;28.88;12.70;;;;;;;;;;5002319;28;20045;-71
2024/01/18 05:11:25;;;;;;;27.23;12.15;;;;;;;;;;5004312;28;20060;-71
2024/01/18 05:13:51;;;;;;;26.58;12.10;;;;;;;;;;5004057;28;20088;-71
2024/01/18 05:16:18;;;;;;;29.33;12.40;;;;;;;;;;5003518;28;20861;-71
2024/01/18 05:18:43;;;;;;;28.42;13.25;;;;;;;;;;5002289;28;20048;-71
2024/01/18 05:21:09;;;;;;;31.83;13.32;;;;;;;;;;4995372;28;20029;-70
2024/01/18 05:23:36;;;;;;;32.50;13.52;;;;;;;;;;5002853;28;20056;-71
2024/01/18 05:26:02;;;;;;;36.70;14.07;;;;;;;;;;5002523;28;20038;-71
2024/01/18 05:28:27;;;;;;;34.05;13.23;;;;;;;;;;5003904;28;20037;-71
2024/01/18 05:30:53;;;;;;;30.60;12.85;;;;;;;;;;5003795;28;20049;-71
2024/01/18 05:33:18;;;;;;;37.25;14.00;;;;;;;;;;5002597;28;20029;-71
2024/01/18 05:35:43;;;;;;;34.70;13.45;;;;;;;;;;5004642;28;20030;-71
2024/01/18 05:38:10;;;;;;;34.97;13.32;;;;;;;;;;4993499;28;20040;-70
2024/01/18 05:40:36;;;;;;;29.27;12.23;;;;;;;;;;4984198;28;20084;-70
2024/01/18 05:43:01;;;;;;;35.10;13.93;;;;;;;;;;4998937;28;20945;-71
2024/01/18 05:45:27;;;;;;;36.47;13.38;;;;;;;;;;5003057;28;20042;-70
2024/01/18 05:47:53;;;;;;;34.17;13.95;;;;;;;;;;4974788;28;20019;-70
2024/01/18 05:50:18;;;;;;;41.55;14.75;;;;;;;;;;4987043;28;20061;-70
2024/01/18 05:52:44;;;;;;;32.05;13.68;;;;;;;;;;4984008;28;20034;-71
2024/01/18 05:55:09;;;;;;;32.30;14.05;;;;;;;;;;4993237;28;20031;-71
2024/01/18 05:57:37;;;;;;;27.00;12.50;;;;;;;;;;4984384;28;20066;-71
2024/01/18 06:00:05;;;;;;;29.88;14.10;;;;;;;;;;4983892;28;20036;-71
2024/01/18 06:02:31;;;;;;;28.50;14.00;;;;;;;;;;4984458;28;20019;-71
2024/01/18 06:04:57;;;;;;;30.50;13.27;;;;;;;;;;4983697;28;20569;-71
2024/01/18 06:07:23;;;;;;;33.60;13.57;;;;;;;;;;4984216;28;20030;-70
2024/01/18 06:09:48;;;;;;;36.03;14.02;;;;;;;;;;4982984;28;20562;-70
2024/01/18 06:12:14;;;;;;;34.88;14.27;;;;;;;;;;4982626;28;20027;-70
2024/01/18 06:14:39;;;;;;;33.65;14.48;;;;;;;;;;4984098;28;20061;-71
2024/01/18 06:17:04;;;;;;;27.02;12.73;;;;;;;;;;4983540;28;20061;-71
2024/01/18 06:19:30;;;;;;;28.08;11.43;;;;;;;;;;4983954;28;20042;-71
2024/01/18 06:21:55;;;;;;;29.38;12.02;;;;;;;;;;4981838;28;20542;-70
2024/01/18 06:24:21;;;;;;;28.48;12.52;;;;;;;;;;4992788;28;20125;-70
2024/01/18 06:26:46;;;;;;;28.35;13.38;;;;;;;;;;4987599;28;20026;-69
2024/01/18 06:29:12;;;;;;;30.52;12.77;;;;;;;;;;4986726;28;20042;-71
2024/01/18 06:31:37;;;;;;;24.63;11.02;;;;;;;;;;4986961;28;20058;-71
2024/01/18 06:34:04;;;;;;;33.03;12.85;;;;;;;;;;4987009;28;20522;-71
2024/01/18 06:36:30;;;;;;;28.90;13.00;;;;;;;;;;4984826;28;20039;-71
2024/01/18 06:38:55;;;;;;;37.03;12.68;;;;;;;;;;5005584;28;20018;-71
2024/01/18 06:41:21;;;;;;;28.13;11.55;;;;;;;;;;5005538;28;20026;-70
2024/01/18 06:43:46;;;;;;;21.13;10.43;;;;;;;;;;5004958;28;20042;-71
2024/01/18 06:46:16;;;;;;;24.90;11.95;;;;;;;;;;5001369;28;20038;-70
2024/01/18 06:48:42;;;;;;;20.60;9.18;;;;;;;;;;4995514;28;20038;-71
2024/01/18 06:51:07;;;;;;;19.50;9.93;;;;;;;;;;4978825;28;20040;-71
2024/01/18 06:53:32;;;;;;;14.73;8.20;;;;;;;;;;4985785;28;20022;-71
2024/01/18 06:55:58;;;;;;;21.90;10.23;;;;;;;;;;4969839;28;20038;-71
2024/01/18 06:58:23;;;;;;;22.85;10.63;;;;;;;;;;4968508;28;20030;-71
2024/01/18 07:00:48;;;;;;;19.83;10.10;;;;;;;;;;4973566;28;20615;-72
2024/01/18 07:03:14;;;;;;;27.50;11.05;;;;;;;;;;4976599;28;20043;-70
2024/01/18 07:05:40;;;;;;;22.08;9.73;;;;;;;;;;4987830;28;20026;-71
2024/01/18 07:08:05;;;;;;;22.65;9.05;;;;;;;;;;4965132;28;20047;-71
2024/01/18 07:10:31;;;;;;;21.33;9.35;;;;;;;;;;4966928;28;20093;-71
2024/01/18 07:12:56;;;;;;;18.08;8.25;;;;;;;;;;4966998;28;20077;-70
2024/01/18 07:15:22;;;;;;;19.85;8.95;;;;;;;;;;4966618;28;20126;-71
2024/01/18 07:17:47;;;;;;;20.15;8.32;;;;;;;;;;4967734;28;20054;-71
2024/01/18 07:20:12;;;;;;;23.55;10.70;;;;;;;;;;4969713;28;20069;-70
2024/01/18 07:22:38;;;;;;;25.60;10.38;;;;;;;;;;4968700;28;20045;-71
2024/01/18 07:25:05;;;;;;;41.17;21.40;;;;;;;;;;4978669;28;20048;-69
2024/01/18 07:27:31;;;;;;;29.42;12.15;;;;;;;;;;4988093;28;20046;-71
2024/01/18 07:29:56;;;;;;;19.33;9.57;;;;;;;;;;4998919;28;20030;-71
2024/01/18 07:32:23;;;;;;;24.02;11.10;;;;;;;;;;4997896;28;20410;-70
2024/01/18 07:34:48;;;;;;;26.23;13.10;;;;;;;;;;4994415;28;20065;-70
2024/01/18 07:37:14;;;;;;;17.88;9.15;;;;;;;;;;4985898;28;20623;-71
2024/01/18 07:39:42;;;;;;;22.38;12.82;;;;;;;;;;4998115;28;20069;-70
2024/01/18 07:42:08;;;;;;;22.17;13.23;;;;;;;;;;5002113;28;20030;-70
2024/01/18 07:44:34;;;;;;;30.73;16.13;;;;;;;;;;5006096;28;20029;-70
2024/01/18 07:46:59;;;;;;;18.67;8.63;;;;;;;;;;5003002;28;20045;-70
2024/01/18 07:49:24;;;;;;;14.25;10.13;;;;;;;;;;5003101;28;20046;-70
2024/01/18 07:51:50;;;;;;;16.30;8.55;;;;;;;;;;5003769;28;20069;-70
2024/01/18 07:54:15;;;;;;;24.85;10.05;;;;;;;;;;5004518;28;20507;-70
2024/01/18 07:56:41;;;;;;;18.73;6.82;;;;;;;;;;4998698;28;20595;-70
2024/01/18 07:59:07;;;;;;;16.13;6.85;;;;;;;;;;4990380;28;20060;-70
2024/01/18 08:01:32;;;;;;;15.15;5.75;;;;;;;;;;4998794;28;20054;-71
2024/01/18 08:03:57;;;;;;;21.98;6.20;;;;;;;;;;4990499;28;20054;-70
2024/01/18 08:06:23;;;;;;;22.00;8.98;;;;;;;;;;4985598;28;20527;-70
2024/01/18 08:08:48;;;;;;;17.38;7.63;;;;;;;;;;4989659;28;20440;-70
2024/01/18 08:11:13;;;;;;;18.92;7.55;;;;;;;;;;4992006;28;20352;-71
2024/01/18 08:13:40;;;;;;;13.50;7.88;;;;;;;;;;4989630;28;20038;-70
2024/01/18 08:16:07;;;;;;;15.93;7.18;;;;;;;;;;4999250;28;20072;-70
2024/01/18 08:18:32;;;;;;;16.55;10.85;;;;;;;;;;4997415;28;20393;-70
2024/01/18 08:20:58;;;;;;;9.38;6.85;;;;;;;;;;4986280;28;20023;-70
2024/01/18 08:23:23;;;;;;;8.18;3.70;;;;;;;;;;5000043;28;20026;-70
2024/01/18 08:25:49;;;;;;;9.63;5.47;;;;;;;;;;4989642;28;20451;-70
2024/01/18 08:28:14;;;;;;;16.85;9.50;;;;;;;;;;4999482;28;20038;-69
2024/01/18 08:30:40;;;;;;;18.17;7.47;;;;;;;;;;5005346;28;20034;-71
2024/01/18 08:33:08;;;;;;;16.63;8.55;;;;;;;;;;5010208;28;20034;-71
2024/01/18 08:35:34;;;;;;;19.98;9.30;;;;;;;;;;5013712;28;20083;-70
2024/01/18 08:38:00;;;;;;;9.45;6.10;;;;;;;;;;5017714;28;20041;-70
2024/01/18 08:40:25;;;;;;;21.00;10.38;;;;;;;;;;5020423;28;20570;-70
2024/01/18 08:42:51;;;;;;;18.42;8.95;;;;;;;;;;5019029;28;20045;-70
2024/01/18 08:45:18;;;;;;;19.98;9.38;;;;;;;;;;5010130;28;20088;-70
2024/01/18 08:47:43;;;;;;;23.13;9.68;;;;;;;;;;5007800;28;20121;-72
2024/01/18 08:50:09;;;;;;;13.75;6.30;;;;;;;;;;5001946;28;20124;-71
2024/01/18 08:52:34;;;;;;;13.80;6.95;;;;;;;;;;5003130;28;20069;-70
2024/01/18 08:55:00;;;;;;;18.63;9.75;;;;;;;;;;5000199;28;20117;-71
2024/01/18 08:57:28;;;;;;;16.73;7.63;;;;;;;;;;5002990;28;20430;-71
2024/01/18 08:59:53;;;;;;;39.70;7.30;;;;;;;;;;4994420;28;20026;-70
2024/01/18 09:02:19;;;;;;;23.40;7.28;;;;;;;;;;4982275;28;20022;-72
2024/01/18 09:04:44;;;;;;;29.05;9.43;;;;;;;;;;4981948;28;20065;-70
2024/01/18 09:07:09;;;;;;;23.55;8.43;;;;;;;;;;4983432;28;20038;-71
2024/01/18 09:09:35;;;;;;;20.95;9.40;;;;;;;;;;4999951;28;20093;-70
2024/01/18 09:12:00;;;;;;;18.17;8.52;;;;;;;;;;5002057;28;20034;-70
2024/01/18 09:14:26;;;;;;;14.70;7.72;;;;;;;;;;5004055;28;20026;-69
2024/01/18 09:16:51;;;;;;;14.32;8.23;;;;;;;;;;5005988;28;20045;-71
2024/01/18 09:19:17;;;;;;;20.92;8.80;;;;;;;;;;5003393;28;20041;-69
2024/01/18 09:21:44;;;;;;;19.83;6.78;;;;;;;;;;5002996;28;20507;-71
2024/01/18 09:24:10;;;;;;;19.55;6.88;;;;;;;;;;4988585;28;20496;-70
2024/01/18 09:26:35;;;;;;;12.95;7.88;;;;;;;;;;4983585;28;20022;-71
2024/01/18 09:29:02;;;;;;;19.20;8.25;;;;;;;;;;4994344;28;20466;-71
2024/01/18 09:31:28;;;;;;;19.83;8.50;;;;;;;;;;4991872;28;20038;-71
2024/01/18 09:33:53;;;;;;;21.33;9.95;;;;;;;;;;4993472;28;20045;-71
2024/01/18 09:36:19;;;;;;;24.85;11.50;;;;;;;;;;4990201;28;20042;-70
2024/01/18 09:38:44;;;;;;;14.25;7.90;;;;;;;;;;4989876;28;20034;-71
2024/01/18 09:41:10;;;;;;;17.38;9.35;;;;;;;;;;4992254;28;20038;-71
2024/01/18 09:43:38;;;;;;;17.52;8.68;;;;;;;;;;4995456;28;20042;-71
2024/01/18 09:46:08;;;;;;;22.85;7.47;;;;;;;;;;4989516;28;20033;-71
2024/01/18 09:48:37;;;;;;;21.20;9.98;;;;;;;;;;4979123;28;20047;-71
2024/01/18 09:51:06;;;;;;;21.90;10.15;;;;;;;;;;4973722;28;20566;-72
2024/01/18 09:53:32;;;;;;;16.88;7.88;;;;;;;;;;4987711;28;20045;-71
2024/01/18 09:56:05;;;;;;;17.33;8.98;;;;;;;;;;4992295;28;20133;-71
2024/01/18 09:58:30;;;;;;;19.38;9.00;;;;;;;;;;4987026;28;20042;-71
2024/01/18 10:00:59;;;;;;;15.15;7.00;;;;;;;;;;4993047;28;20034;-70
2024/01/18 10:03:25;;;;;;;10.10;6.35;;;;;;;;;;4991401;28;20890;-71
2024/01/18 10:05:51;;;;;;;21.45;6.15;;;;;;;;;;4995952;28;20679;-71
2024/01/18 10:08:16;;;;;;;14.95;7.85;;;;;;;;;;4995528;28;20069;-72
2024/01/18 10:10:43;;;;;;;18.67;8.95;;;;;;;;;;4998120;28;20033;-72
2024/01/18 10:13:14;;;;;;;22.30;10.50;;;;;;;;;;4994486;28;20850;-72
2024/01/18 10:15:40;;;;;;;27.73;12.40;;;;;;;;;;4995140;28;20046;-72
2024/01/18 10:18:06;;;;;;;31.50;12.65;;;;;;;;;;4993134;28;20037;-74
2024/01/18 10:20:32;;;;;;;28.88;11.90;;;;;;;;;;4993570;28;20027;-74
2024/01/18 10:23:01;;;;;;;21.60;10.73;;;;;;;;;;4990944;28;20038;-74
2024/01/18 10:25:27;;;;;;;35.40;13.18;;;;;;;;;;4996204;28;20144;-72
2024/01/18 10:27:53;;;;;;;22.20;9.48;;;;;;;;;;4997080;28;20641;-73
2024/01/18 10:30:19;;;;;;;23.00;10.55;;;;;;;;;;4995740;28;20591;-73
2024/01/18 10:32:45;;;;;;;23.25;10.25;;;;;;;;;;4995507;28;20068;-74
2024/01/18 10:35:24;;;;;;;29.60;11.43;;;;;;;;;;4994888;28;20042;-73
2024/01/18 10:38:03;;;;;;;24.27;11.43;;;;;;;;;;4988850;28;20053;-71
2024/01/18 10:40:31;;;;;;;26.58;10.25;;;;;;;;;;4995759;28;20543;-72
2024/01/18 10:42:56;;;;;;;31.90;13.10;;;;;;;;;;4986769;28;20527;-72
2024/01/18 10:45:21;;;;;;;21.98;11.35;;;;;;;;;;4985495;28;20030;-72
2024/01/18 10:47:47;;;;;;;35.75;12.45;;;;;;;;;;4986660;28;20030;-72
2024/01/18 10:50:12;;;;;;;29.83;13.65;;;;;;;;;;4988145;28;20057;-71
2024/01/18 10:52:40;;;;;;;22.55;11.60;;;;;;;;;;4999225;28;20040;-72
2024/01/18 10:55:12;;;;;;;29.00;12.20;;;;;;;;;;4999435;28;20044;-72
2024/01/18 10:57:37;;;;;;;24.23;12.35;;;;;;;;;;4990085;28;20046;-72
2024/01/18 11:00:06;;;;;;;38.33;14.25;;;;;;;;;;4991852;28;20096;-72
2024/01/18 11:02:35;;;;;;;27.48;13.18;;;;;;;;;;4985786;28;20026;-72
2024/01/18 11:05:00;;;;;;;22.63;10.73;;;;;;;;;;4977770;28;20616;-72
2024/01/18 11:07:27;;;;;;;24.33;11.68;;;;;;;;;;4968565;28;20038;-71
2024/01/18 11:09:53;;;;;;;19.60;10.35;;;;;;;;;;4980317;28;20053;-72
2024/01/18 11:12:19;;;;;;;25.95;12.07;;;;;;;;;;4992373;28;20052;-71
2024/01/18 11:14:46;;;;;;;30.77;13.43;;;;;;;;;;4986331;28;20030;-72
2024/01/18 11:17:16;;;;;;;29.55;13.05;;;;;;;;;;5004081;28;20385;-72
2024/01/18 11:19:43;;;;;;;31.42;14.40;;;;;;;;;;5004786;28;20037;-72
2024/01/18 11:22:26;;;;;;;34.70;15.77;;;;;;;;;;5003846;28;20498;-72
2024/01/18 11:24:51;;;;;;;36.13;13.53;;;;;;;;;;4996210;28;20046;-71
2024/01/18 11:27:22;;;;;;;41.75;14.88;;;;;;;;;;4986196;28;20034;-71
2024/01/18 11:29:49;;;;;;;34.90;14.63;;;;;;;;;;4984007;28;20026;-72
2024/01/18 11:32:17;;;;;;;22.45;11.85;;;;;;;;;;4984677;28;20038;-74
2024/01/18 11:34:44;;;;;;;31.80;14.30;;;;;;;;;;4992295;28;20045;-71
2024/01/18 11:37:13;;;;;;;29.10;14.20;;;;;;;;;;4993627;28;20061;-71
2024/01/18 11:39:47;;;;;;;33.90;14.25;;;;;;;;;;4993145;28;20189;-72
2024/01/18 11:42:27;;;;;;;39.15;16.00;;;;;;;;;;5000223;28;20052;-71
2024/01/18 11:45:14;;;;;;;32.78;14.52;;;;;;;;;;4991793;28;20228;-71
2024/01/18 11:47:40;;;;;;;30.65;14.85;;;;;;;;;;4992743;28;20064;-71
2024/01/18 11:50:09;;;;;;;33.00;14.88;;;;;;;;;;4994384;28;20101;-71
2024/01/18 11:52:39;;;;;;;31.83;13.50;;;;;;;;;;4979841;28;20710;-72
2024/01/18 11:55:05;;;;;;;33.95;14.80;;;;;;;;;;4984803;28;20057;-71
2024/01/18 11:57:32;;;;;;;31.55;14.15;;;;;;;;;;4991296;28;20049;-71
2024/01/18 11:59:58;;;;;;;39.08;17.63;;;;;;;;;;4997289;28;20029;-71
2024/01/18 12:02:28;;;;;;;32.85;15.65;;;;;;;;;;4984603;28;20037;-71
2024/01/18 12:04:54;;;;;;;29.30;13.45;;;;;;;;;;4995189;28;20099;-71
2024/01/18 12:07:19;;;;;;;37.97;13.98;;;;;;;;;;4990252;28;20046;-72
2024/01/18 12:09:45;;;;;;;31.80;13.65;;;;;;;;;;4995260;28;20079;-71
2024/01/18 12:12:11;;;;;;;25.23;13.05;;;;;;;;;;4998510;28;20029;-71
2024/01/18 12:14:42;;;;;;;29.38;14.32;;;;;;;;;;4985406;28;20027;-71
2024/01/18 12:17:12;;;;;;;43.13;15.70;;;;;;;;;;4998273;28;20045;-72
2024/01/18 12:19:41;;;;;;;40.75;17.65;;;;;;;;;;4982231;28;20532;-71
2024/01/18 12:22:12;;;;;;;40.50;15.48;;;;;;;;;;4979542;28;20054;-72
2024/01/18 12:24:39;;;;;;;38.60;15.60;;;;;;;;;;4982426;28;20058;-71
2024/01/18 12:27:05;;;;;;;41.58;17.40;;;;;;;;;;4968213;28;20036;-70
2024/01/18 12:29:32;;;;;;;34.70;16.08;;;;;;;;;;4983926;28;20030;-71
2024/01/18 12:31:58;;;;;;;37.55;16.42;;;;;;;;;;4984098;28;20104;-70
2024/01/18 12:34:24;;;;;;;35.75;14.73;;;;;;;;;;4985442;28;20042;-71
2024/01/18 12:36:51;;;;;;;36.30;14.98;;;;;;;;;;5000565;28;20544;-71
2024/01/18 12:39:17;;;;;;;38.65;14.93;;;;;;;;;;4992096;28;20034;-71
2024/01/18 12:41:44;;;;;;;32.25;15.25;;;;;;;;;;4992312;28;20048;-71
2024/01/18 12:44:13;;;;;;;29.88;13.48;;;;;;;;;;4997593;28;20042;-72
2024/01/18 12:46:40;;;;;;;24.88;10.75;;;;;;;;;;4985520;28;20077;-73
2024/01/18 12:49:06;;;;;;;13.00;7.30;;;;;;;;;;4983655;28;20137;-72
2024/01/18 12:51:34;;;;;;;14.93;7.13;;;;;;;;;;4985627;28;20034;-72
2024/01/18 12:54:00;;;;;;;13.73;5.75;;;;;;;;;;4996330;28;20030;-72
2024/01/18 12:56:27;;;;;;;9.85;4.57;;;;;;;;;;4985917;28;20498;-71
2024/01/18 12:58:53;;;;;;;13.75;5.30;;;;;;;;;;4983354;28;20752;-74
2024/01/18 13:01:29;;;;;;;7.25;2.90;;;;;;;;;;5001677;28;20041;-74
2024/01/18 13:04:17;;;;;;;4.60;2.58;;;;;;;;;;5002894;28;20049;-72
2024/01/18 13:06:44;;;;;;;5.35;3.05;;;;;;;;;;5002734;28;20038;-72
2024/01/18 13:09:13;;;;;;;4.55;1.60;;;;;;;;;;4995734;28;20030;-72
2024/01/18 13:11:39;;;;;;;4.75;2.17;;;;;;;;;;4985942;28;20050;-72
2024/01/18 13:14:09;;;;;;;6.70;2.30;;;;;;;;;;5002908;28;20061;-72
2024/01/18 13:16:39;;;;;;;4.55;2.28;;;;;;;;;;5002674;28;20050;-72
2024/01/18 13:19:05;;;;;;;3.50;1.88;;;;;;;;;;5002221;28;20049;-72
2024/01/18 13:21:32;;;;;;;2.28;1.48;;;;;;;;;;5001594;28;20038;-73
2024/01/18 13:24:02;;;;;;;1.77;1.10;;;;;;;;;;4994822;28;20033;-72
2024/01/18 13:26:28;;;;;;;1.70;0.90;;;;;;;;;;5001311;28;20033;-72
2024/01/18 13:28:54;;;;;;;2.38;1.33;;;;;;;;;;4981542;28;20051;-72
2024/01/18 13:31:19;;;;;;;2.05;0.90;;;;;;;;;;4978381;28;20478;-70
2024/01/18 13:33:45;;;;;;;1.98;1.10;;;;;;;;;;4995351;28;20069;-71
2024/01/18 13:36:11;;;;;;;2.38;1.15;;;;;;;;;;5005519;28;20056;-71
2024/01/18 13:38:36;;;;;;;5.15;1.23;;;;;;;;;;4988534;28;20037;-71
2024/01/18 13:41:02;;;;;;;4.22;1.05;;;;;;;;;;4998172;28;20050;-70
2024/01/18 13:43:27;;;;;;;2.22;0.80;;;;;;;;;;4985476;28;20097;-73
2024/01/18 13:45:54;;;;;;;1.35;0.90;;;;;;;;;;5004538;28;20045;-73
2024/01/18 13:48:19;;;;;;;5.10;1.23;;;;;;;;;;5004394;28;20423;-73
2024/01/18 13:50:44;;;;;;;3.00;1.25;;;;;;;;;;4986705;28;20034;-73
2024/01/18 13:53:14;;;;;;;2.28;1.00;;;;;;;;;;5005826;28;20041;-73
2024/01/18 13:55:40;;;;;;;4.07;1.27;;;;;;;;;;5000061;28;20053;-73
2024/01/18 13:58:07;;;;;;;1.23;0.90;;;;;;;;;;5004215;28;20029;-73
2024/01/18 14:00:33;;;;;;;1.92;1.02;;;;;;;;;;4999448;28;20049;-73
2024/01/18 14:02:58;;;;;;;7.57;1.75;;;;;;;;;;5007261;28;20030;-73
2024/01/18 14:05:27;;;;;;;1.77;1.00;;;;;;;;;;5006902;28;20470;-74
2024/01/18 14:07:52;;;;;;;0.90;0.63;;;;;;;;;;4992676;28;20513;-72
2024/01/18 14:10:18;;;;;;;4.35;0.95;;;;;;;;;;4992742;28;20049;-72
2024/01/18 14:12:43;;;;;;;2.97;0.82;;;;;;;;;;5005834;28;20514;-73
2024/01/18 14:15:08;;;;;;;0.90;0.70;;;;;;;;;;5004699;28;20543;-72